sensor_id;sensor_type;location;lat;lon;timestamp;P1;durP1;ratioP1;P2;durP2;ratioP2
22103;SDS011;11218;48.886;9.426;2022-12-11T00:01:09;162.90;;;76.77;;
22103;SDS011;11218;48.886;9.426;2022-12-11T00:03:37;176.23;;;80.97;;
22103;SDS011;11218;48.886;9.426;2022-12-11T00:06:07;179.85;;;81.07;;
22103;SDS011;11218;48.886;9.426;2022-12-11T00:08:37;185.02;;;82.63;;
22103;SDS011;11218;48.886;9.426;2022-12-11T00:11:07;189.53;;;83.33;;
22103;SDS011;11218;48.886;9.426;2022-12-11T00:13:36;192.30;;;83.83;;
22103;SDS011;11218;48.886;9.426;2022-12-11T00:16:05;197.10;;;87.63;;
22103;SDS011;11218;48.886;9.426;2022-12-11T00:18:34;172.93;;;81.73;;
22103;SDS011;11218;48.886;9.426;2022-12-11T00:21:03;209.63;;;89.87;;
22103;SDS011;11218;48.886;9.426;2022-12-11T00:23:34;184.68;;;84.18;;
22103;SDS011;11218;48.886;9.426;2022-12-11T00:26:04;193.43;;;84.32;;
22103;SDS011;11218;48.886;9.426;2022-12-11T00:28:34;179.10;;;79.97;;
22103;SDS011;11218;48.886;9.426;2022-12-11T00:31:03;197.53;;;86.77;;
22103;SDS011;11218;48.886;9.426;2022-12-11T00:33:32;142.83;;;71.93;;
22103;SDS011;11218;48.886;9.426;2022-12-11T00:36:00;164.57;;;76.73;;
22103;SDS011;11218;48.886;9.426;2022-12-11T00:38:29;197.40;;;85.53;;
22103;SDS011;11218;48.886;9.426;2022-12-11T00:40:59;199.53;;;87.57;;
22103;SDS011;11218;48.886;9.426;2022-12-11T00:43:27;180.15;;;82.18;;
22103;SDS011;11218;48.886;9.426;2022-12-11T00:45:55;186.90;;;83.17;;
22103;SDS011;11218;48.886;9.426;2022-12-11T00:48:27;184.30;;;81.97;;
22103;SDS011;11218;48.886;9.426;2022-12-11T00:50:55;192.60;;;84.30;;
22103;SDS011;11218;48.886;9.426;2022-12-11T00:53:23;191.53;;;84.73;;
22103;SDS011;11218;48.886;9.426;2022-12-11T00:55:51;201.97;;;85.63;;
22103;SDS011;11218;48.886;9.426;2022-12-11T00:58:21;182.00;;;80.37;;
22103;SDS011;11218;48.886;9.426;2022-12-11T01:00:49;185.90;;;80.93;;
22103;SDS011;11218;48.886;9.426;2022-12-11T01:03:18;198.57;;;83.80;;
22103;SDS011;11218;48.886;9.426;2022-12-11T01:05:50;150.50;;;70.00;;
22103;SDS011;11218;48.886;9.426;2022-12-11T01:08:19;128.30;;;62.20;;
22103;SDS011;11218;48.886;9.426;2022-12-11T01:10:48;124.07;;;61.10;;
22103;SDS011;11218;48.886;9.426;2022-12-11T01:13:15;125.83;;;61.17;;
22103;SDS011;11218;48.886;9.426;2022-12-11T01:15:45;107.85;;;54.45;;
22103;SDS011;11218;48.886;9.426;2022-12-11T01:18:16;115.50;;;57.73;;
22103;SDS011;11218;48.886;9.426;2022-12-11T01:20:44;120.90;;;58.67;;
22103;SDS011;11218;48.886;9.426;2022-12-11T01:23:12;129.23;;;62.03;;
22103;SDS011;11218;48.886;9.426;2022-12-11T01:25:41;117.77;;;58.47;;
22103;SDS011;11218;48.886;9.426;2022-12-11T01:28:12;116.57;;;59.27;;
22103;SDS011;11218;48.886;9.426;2022-12-11T01:30:40;98.17;;;52.70;;
22103;SDS011;11218;48.886;9.426;2022-12-11T01:33:11;105.40;;;55.43;;
22103;SDS011;11218;48.886;9.426;2022-12-11T01:35:42;105.00;;;54.03;;
22103;SDS011;11218;48.886;9.426;2022-12-11T01:38:10;94.20;;;50.73;;
22103;SDS011;11218;48.886;9.426;2022-12-11T01:40:43;97.73;;;51.27;;
22103;SDS011;11218;48.886;9.426;2022-12-11T01:43:19;102.47;;;53.10;;
22103;SDS011;11218;48.886;9.426;2022-12-11T01:45:47;79.90;;;47.43;;
22103;SDS011;11218;48.886;9.426;2022-12-11T01:48:18;84.10;;;47.70;;
22103;SDS011;11218;48.886;9.426;2022-12-11T01:50:49;104.47;;;55.33;;
22103;SDS011;11218;48.886;9.426;2022-12-11T01:53:21;93.77;;;51.20;;
22103;SDS011;11218;48.886;9.426;2022-12-11T01:55:56;133.10;;;61.27;;
22103;SDS011;11218;48.886;9.426;2022-12-11T01:58:27;102.67;;;53.33;;
22103;SDS011;11218;48.886;9.426;2022-12-11T02:00:58;105.70;;;55.07;;
22103;SDS011;11218;48.886;9.426;2022-12-11T02:03:31;130.20;;;63.03;;
22103;SDS011;11218;48.886;9.426;2022-12-11T02:05:59;111.83;;;58.20;;
22103;SDS011;11218;48.886;9.426;2022-12-11T02:08:27;100.47;;;55.33;;
22103;SDS011;11218;48.886;9.426;2022-12-11T02:10:59;142.30;;;66.47;;
22103;SDS011;11218;48.886;9.426;2022-12-11T02:13:34;130.90;;;62.83;;
22103;SDS011;11218;48.886;9.426;2022-12-11T02:16:13;146.07;;;66.63;;
22103;SDS011;11218;48.886;9.426;2022-12-11T02:18:47;146.87;;;67.83;;
22103;SDS011;11218;48.886;9.426;2022-12-11T02:21:23;120.93;;;60.87;;
22103;SDS011;11218;48.886;9.426;2022-12-11T02:27:02;159.57;;;71.60;;
22103;SDS011;11218;48.886;9.426;2022-12-11T02:29:55;149.63;;;68.70;;
22103;SDS011;11218;48.886;9.426;2022-12-11T02:32:30;175.90;;;74.37;;
22103;SDS011;11218;48.886;9.426;2022-12-11T02:35:05;188.53;;;79.90;;
22103;SDS011;11218;48.886;9.426;2022-12-11T02:37:42;215.93;;;85.17;;
22103;SDS011;11218;48.886;9.426;2022-12-11T02:40:14;213.67;;;86.30;;
22103;SDS011;11218;48.886;9.426;2022-12-11T02:42:46;233.77;;;90.73;;
22103;SDS011;11218;48.886;9.426;2022-12-11T02:45:17;211.80;;;86.47;;
22103;SDS011;11218;48.886;9.426;2022-12-11T02:47:47;161.77;;;72.40;;
22103;SDS011;11218;48.886;9.426;2022-12-11T02:50:18;152.73;;;71.50;;
22103;SDS011;11218;48.886;9.426;2022-12-11T02:52:49;160.80;;;73.73;;
22103;SDS011;11218;48.886;9.426;2022-12-11T02:55:22;165.63;;;74.43;;
22103;SDS011;11218;48.886;9.426;2022-12-11T02:57:55;173.93;;;78.83;;
22103;SDS011;11218;48.886;9.426;2022-12-11T03:00:31;195.07;;;83.17;;
22103;SDS011;11218;48.886;9.426;2022-12-11T03:03:00;241.20;;;93.37;;
22103;SDS011;11218;48.886;9.426;2022-12-11T03:05:28;230.40;;;90.77;;
22103;SDS011;11218;48.886;9.426;2022-12-11T03:07:57;183.57;;;80.70;;
22103;SDS011;11218;48.886;9.426;2022-12-11T03:10:26;155.87;;;72.97;;
22103;SDS011;11218;48.886;9.426;2022-12-11T03:12:54;202.03;;;85.37;;
22103;SDS011;11218;48.886;9.426;2022-12-11T03:15:27;213.57;;;88.03;;
22103;SDS011;11218;48.886;9.426;2022-12-11T03:18:03;225.90;;;92.33;;
22103;SDS011;11218;48.886;9.426;2022-12-11T03:20:36;228.93;;;90.30;;
22103;SDS011;11218;48.886;9.426;2022-12-11T03:23:10;139.98;;;69.22;;
22103;SDS011;11218;48.886;9.426;2022-12-11T03:25:46;164.53;;;75.23;;
22103;SDS011;11218;48.886;9.426;2022-12-11T03:28:22;143.50;;;70.33;;
22103;SDS011;11218;48.886;9.426;2022-12-11T03:30:57;133.57;;;65.75;;
22103;SDS011;11218;48.886;9.426;2022-12-11T03:33:31;126.37;;;64.47;;
22103;SDS011;11218;48.886;9.426;2022-12-11T03:36:04;136.50;;;68.97;;
22103;SDS011;11218;48.886;9.426;2022-12-11T03:38:36;145.57;;;71.70;;
22103;SDS011;11218;48.886;9.426;2022-12-11T03:41:08;167.48;;;77.40;;
22103;SDS011;11218;48.886;9.426;2022-12-11T03:43:38;145.27;;;70.50;;
22103;SDS011;11218;48.886;9.426;2022-12-11T03:46:09;159.25;;;74.70;;
22103;SDS011;11218;48.886;9.426;2022-12-11T03:48:41;163.00;;;75.13;;
22103;SDS011;11218;48.886;9.426;2022-12-11T03:51:11;180.50;;;78.57;;
22103;SDS011;11218;48.886;9.426;2022-12-11T03:53:41;124.07;;;63.30;;
22103;SDS011;11218;48.886;9.426;2022-12-11T03:56:10;131.10;;;65.77;;
22103;SDS011;11218;48.886;9.426;2022-12-11T03:58:42;123.83;;;63.63;;
22103;SDS011;11218;48.886;9.426;2022-12-11T04:01:12;116.18;;;61.40;;
22103;SDS011;11218;48.886;9.426;2022-12-11T04:03:40;113.50;;;59.60;;
22103;SDS011;11218;48.886;9.426;2022-12-11T04:06:08;105.85;;;57.63;;
22103;SDS011;11218;48.886;9.426;2022-12-11T04:08:36;121.35;;;61.83;;
22103;SDS011;11218;48.886;9.426;2022-12-11T04:11:04;125.65;;;64.63;;
22103;SDS011;11218;48.886;9.426;2022-12-11T04:13:49;104.88;;;56.88;;
22103;SDS011;11218;48.886;9.426;2022-12-11T04:16:39;128.55;;;64.35;;
22103;SDS011;11218;48.886;9.426;2022-12-11T04:19:07;113.78;;;60.58;;
22103;SDS011;11218;48.886;9.426;2022-12-11T04:21:53;82.72;;;46.08;;
22103;SDS011;11218;48.886;9.426;2022-12-11T04:24:53;77.10;;;43.58;;
22103;SDS011;11218;48.886;9.426;2022-12-11T04:27:21;63.03;;;35.50;;
22103;SDS011;11218;48.886;9.426;2022-12-11T04:30:08;63.70;;;33.95;;
22103;SDS011;11218;48.886;9.426;2022-12-11T04:32:42;61.05;;;30.50;;
22103;SDS011;11218;48.886;9.426;2022-12-11T04:35:11;66.25;;;30.65;;
22103;SDS011;11218;48.886;9.426;2022-12-11T04:37:40;63.50;;;29.20;;
22103;SDS011;11218;48.886;9.426;2022-12-11T04:40:09;50.53;;;24.50;;
22103;SDS011;11218;48.886;9.426;2022-12-11T04:42:41;55.88;;;23.83;;
22103;SDS011;11218;48.886;9.426;2022-12-11T04:45:09;68.20;;;25.33;;
22103;SDS011;11218;48.886;9.426;2022-12-11T04:47:38;75.20;;;27.13;;
22103;SDS011;11218;48.886;9.426;2022-12-11T04:50:09;76.25;;;25.85;;
22103;SDS011;11218;48.886;9.426;2022-12-11T04:52:38;52.08;;;20.80;;
22103;SDS011;11218;48.886;9.426;2022-12-11T04:55:07;54.40;;;23.95;;
22103;SDS011;11218;48.886;9.426;2022-12-11T04:57:37;69.03;;;33.00;;
22103;SDS011;11218;48.886;9.426;2022-12-11T05:00:07;76.13;;;37.87;;
22103;SDS011;11218;48.886;9.426;2022-12-11T05:02:38;71.13;;;41.35;;
22103;SDS011;11218;48.886;9.426;2022-12-11T05:05:09;91.53;;;49.28;;
22103;SDS011;11218;48.886;9.426;2022-12-11T05:07:38;95.70;;;50.40;;
22103;SDS011;11218;48.886;9.426;2022-12-11T05:10:08;99.63;;;51.40;;
22103;SDS011;11218;48.886;9.426;2022-12-11T05:12:39;112.43;;;58.80;;
22103;SDS011;11218;48.886;9.426;2022-12-11T05:15:07;107.20;;;55.70;;
22103;SDS011;11218;48.886;9.426;2022-12-11T05:17:36;110.60;;;59.90;;
22103;SDS011;11218;48.886;9.426;2022-12-11T05:20:05;110.55;;;61.83;;
22103;SDS011;11218;48.886;9.426;2022-12-11T05:22:37;131.55;;;67.03;;
22103;SDS011;11218;48.886;9.426;2022-12-11T05:25:06;131.33;;;67.10;;
22103;SDS011;11218;48.886;9.426;2022-12-11T05:27:35;130.57;;;69.30;;
22103;SDS011;11218;48.886;9.426;2022-12-11T05:30:03;146.47;;;72.87;;
22103;SDS011;11218;48.886;9.426;2022-12-11T05:32:32;160.10;;;77.57;;
22103;SDS011;11218;48.886;9.426;2022-12-11T05:35:00;183.83;;;85.17;;
22103;SDS011;11218;48.886;9.426;2022-12-11T05:37:29;202.83;;;90.50;;
22103;SDS011;11218;48.886;9.426;2022-12-11T05:40:01;202.03;;;89.93;;
22103;SDS011;11218;48.886;9.426;2022-12-11T05:42:31;213.00;;;91.07;;
22103;SDS011;11218;48.886;9.426;2022-12-11T05:44:59;219.37;;;92.30;;
22103;SDS011;11218;48.886;9.426;2022-12-11T05:47:27;212.70;;;91.20;;
22103;SDS011;11218;48.886;9.426;2022-12-11T05:49:56;227.17;;;95.80;;
22103;SDS011;11218;48.886;9.426;2022-12-11T05:52:26;212.60;;;90.97;;
22103;SDS011;11218;48.886;9.426;2022-12-11T05:54:54;215.47;;;93.57;;
22103;SDS011;11218;48.886;9.426;2022-12-11T05:57:24;226.50;;;96.00;;
22103;SDS011;11218;48.886;9.426;2022-12-11T05:59:52;236.30;;;97.77;;
22103;SDS011;11218;48.886;9.426;2022-12-11T06:02:20;231.73;;;95.50;;
22103;SDS011;11218;48.886;9.426;2022-12-11T06:04:49;201.10;;;89.17;;
22103;SDS011;11218;48.886;9.426;2022-12-11T06:07:17;198.70;;;88.97;;
22103;SDS011;11218;48.886;9.426;2022-12-11T06:09:46;189.70;;;87.37;;
22103;SDS011;11218;48.886;9.426;2022-12-11T06:12:14;190.90;;;85.20;;
22103;SDS011;11218;48.886;9.426;2022-12-11T06:14:44;189.60;;;85.97;;
22103;SDS011;11218;48.886;9.426;2022-12-11T06:17:11;178.23;;;83.20;;
22103;SDS011;11218;48.886;9.426;2022-12-11T06:19:39;178.17;;;79.10;;
22103;SDS011;11218;48.886;9.426;2022-12-11T06:22:08;178.77;;;81.73;;
22103;SDS011;11218;48.886;9.426;2022-12-11T06:24:36;186.43;;;86.37;;
22103;SDS011;11218;48.886;9.426;2022-12-11T06:27:04;197.10;;;87.87;;
22103;SDS011;11218;48.886;9.426;2022-12-11T06:29:33;192.77;;;87.50;;
22103;SDS011;11218;48.886;9.426;2022-12-11T06:32:02;174.10;;;81.30;;
22103;SDS011;11218;48.886;9.426;2022-12-11T06:34:30;186.17;;;82.83;;
22103;SDS011;11218;48.886;9.426;2022-12-11T06:36:59;160.10;;;78.07;;
22103;SDS011;11218;48.886;9.426;2022-12-11T06:39:27;183.73;;;83.60;;
22103;SDS011;11218;48.886;9.426;2022-12-11T06:41:56;175.70;;;81.63;;
22103;SDS011;11218;48.886;9.426;2022-12-11T06:44:24;161.10;;;78.00;;
22103;SDS011;11218;48.886;9.426;2022-12-11T06:46:52;163.47;;;78.00;;
22103;SDS011;11218;48.886;9.426;2022-12-11T06:49:22;173.83;;;83.60;;
22103;SDS011;11218;48.886;9.426;2022-12-11T06:51:50;197.20;;;89.77;;
22103;SDS011;11218;48.886;9.426;2022-12-11T06:54:19;221.27;;;93.93;;
22103;SDS011;11218;48.886;9.426;2022-12-11T06:56:47;213.43;;;92.10;;
22103;SDS011;11218;48.886;9.426;2022-12-11T06:59:15;217.63;;;94.83;;
22103;SDS011;11218;48.886;9.426;2022-12-11T07:01:47;206.27;;;91.90;;
22103;SDS011;11218;48.886;9.426;2022-12-11T07:04:15;212.20;;;93.00;;
22103;SDS011;11218;48.886;9.426;2022-12-11T07:06:44;218.17;;;93.13;;
22103;SDS011;11218;48.886;9.426;2022-12-11T07:09:14;211.97;;;92.97;;
22103;SDS011;11218;48.886;9.426;2022-12-11T07:11:43;206.87;;;90.63;;
22103;SDS011;11218;48.886;9.426;2022-12-11T07:14:11;227.40;;;94.83;;
22103;SDS011;11218;48.886;9.426;2022-12-11T07:16:40;154.73;;;75.13;;
22103;SDS011;11218;48.886;9.426;2022-12-11T07:19:08;200.00;;;89.70;;
22103;SDS011;11218;48.886;9.426;2022-12-11T07:21:36;196.77;;;88.37;;
22103;SDS011;11218;48.886;9.426;2022-12-11T07:24:06;201.53;;;90.37;;
22103;SDS011;11218;48.886;9.426;2022-12-11T07:26:35;178.13;;;82.10;;
22103;SDS011;11218;48.886;9.426;2022-12-11T07:29:03;173.00;;;80.37;;
22103;SDS011;11218;48.886;9.426;2022-12-11T07:31:31;171.13;;;81.03;;
22103;SDS011;11218;48.886;9.426;2022-12-11T07:34:00;166.00;;;79.38;;
22103;SDS011;11218;48.886;9.426;2022-12-11T07:36:30;173.07;;;82.63;;
22103;SDS011;11218;48.886;9.426;2022-12-11T07:38:59;132.20;;;68.03;;
22103;SDS011;11218;48.886;9.426;2022-12-11T07:41:29;142.53;;;73.63;;
22103;SDS011;11218;48.886;9.426;2022-12-11T07:43:57;157.73;;;76.67;;
22103;SDS011;11218;48.886;9.426;2022-12-11T07:46:27;146.83;;;73.87;;
22103;SDS011;11218;48.886;9.426;2022-12-11T07:48:57;141.48;;;70.75;;
22103;SDS011;11218;48.886;9.426;2022-12-11T07:51:27;166.53;;;80.67;;
22103;SDS011;11218;48.886;9.426;2022-12-11T07:53:58;167.83;;;81.03;;
22103;SDS011;11218;48.886;9.426;2022-12-11T07:56:28;161.30;;;80.57;;
22103;SDS011;11218;48.886;9.426;2022-12-11T07:59:01;162.53;;;80.47;;
22103;SDS011;11218;48.886;9.426;2022-12-11T08:01:31;162.10;;;82.53;;
22103;SDS011;11218;48.886;9.426;2022-12-11T08:04:02;181.97;;;88.60;;
22103;SDS011;11218;48.886;9.426;2022-12-11T08:06:31;193.17;;;91.10;;
22103;SDS011;11218;48.886;9.426;2022-12-11T08:09:01;184.60;;;86.73;;
22103;SDS011;11218;48.886;9.426;2022-12-11T08:11:33;157.25;;;78.55;;
22103;SDS011;11218;48.886;9.426;2022-12-11T08:14:03;151.30;;;77.70;;
22103;SDS011;11218;48.886;9.426;2022-12-11T08:16:34;155.77;;;76.73;;
22103;SDS011;11218;48.886;9.426;2022-12-11T08:19:05;178.43;;;84.07;;
22103;SDS011;11218;48.886;9.426;2022-12-11T08:21:36;157.93;;;77.30;;
22103;SDS011;11218;48.886;9.426;2022-12-11T08:24:05;162.83;;;79.87;;
22103;SDS011;11218;48.886;9.426;2022-12-11T08:26:36;175.37;;;82.17;;
22103;SDS011;11218;48.886;9.426;2022-12-11T08:29:05;179.50;;;84.30;;
22103;SDS011;11218;48.886;9.426;2022-12-11T08:31:35;153.80;;;74.67;;
22103;SDS011;11218;48.886;9.426;2022-12-11T08:34:04;147.70;;;75.30;;
22103;SDS011;11218;48.886;9.426;2022-12-11T08:36:32;115.05;;;60.10;;
22103;SDS011;11218;48.886;9.426;2022-12-11T08:39:00;118.80;;;64.40;;
22103;SDS011;11218;48.886;9.426;2022-12-11T08:41:29;126.00;;;66.05;;
22103;SDS011;11218;48.886;9.426;2022-12-11T08:43:59;130.25;;;68.40;;
22103;SDS011;11218;48.886;9.426;2022-12-11T08:46:28;128.43;;;71.28;;
22103;SDS011;11218;48.886;9.426;2022-12-11T08:48:58;105.90;;;58.47;;
22103;SDS011;11218;48.886;9.426;2022-12-11T08:51:27;90.65;;;46.92;;
22103;SDS011;11218;48.886;9.426;2022-12-11T08:53:56;112.88;;;53.55;;
22103;SDS011;11218;48.886;9.426;2022-12-11T08:56:26;139.67;;;70.30;;
22103;SDS011;11218;48.886;9.426;2022-12-11T08:58:59;104.45;;;57.88;;
22103;SDS011;11218;48.886;9.426;2022-12-11T09:01:29;126.15;;;70.28;;
22103;SDS011;11218;48.886;9.426;2022-12-11T09:04:00;120.68;;;63.97;;
22103;SDS011;11218;48.886;9.426;2022-12-11T09:06:29;135.70;;;67.20;;
22103;SDS011;11218;48.886;9.426;2022-12-11T09:08:59;141.03;;;70.47;;
22103;SDS011;11218;48.886;9.426;2022-12-11T09:11:30;106.83;;;61.13;;
22103;SDS011;11218;48.886;9.426;2022-12-11T09:21:05;170.20;;;81.07;;
22103;SDS011;11218;48.886;9.426;2022-12-11T09:23:34;146.77;;;75.18;;
22103;SDS011;11218;48.886;9.426;2022-12-11T09:26:15;147.77;;;70.40;;
22103;SDS011;11218;48.886;9.426;2022-12-11T09:28:47;173.07;;;82.78;;
22103;SDS011;11218;48.886;9.426;2022-12-11T09:31:23;166.27;;;78.13;;
22103;SDS011;11218;48.886;9.426;2022-12-11T09:33:53;176.40;;;82.87;;
22103;SDS011;11218;48.886;9.426;2022-12-11T09:36:25;174.95;;;85.30;;
22103;SDS011;11218;48.886;9.426;2022-12-11T09:38:54;171.43;;;80.23;;
22103;SDS011;11218;48.886;9.426;2022-12-11T09:41:28;163.20;;;79.17;;
22103;SDS011;11218;48.886;9.426;2022-12-11T09:44:05;191.80;;;88.90;;
22103;SDS011;11218;48.886;9.426;2022-12-11T09:46:55;220.75;;;99.22;;
22103;SDS011;11218;48.886;9.426;2022-12-11T09:49:27;198.32;;;88.35;;
22103;SDS011;11218;48.886;9.426;2022-12-11T09:52:07;169.60;;;80.38;;
22103;SDS011;11218;48.886;9.426;2022-12-11T09:54:40;170.43;;;81.83;;
22103;SDS011;11218;48.886;9.426;2022-12-11T09:57:18;183.30;;;84.60;;
22103;SDS011;11218;48.886;9.426;2022-12-11T09:59:59;190.50;;;86.53;;
22103;SDS011;11218;48.886;9.426;2022-12-11T10:02:38;183.25;;;83.47;;
22103;SDS011;11218;48.886;9.426;2022-12-11T10:05:18;190.50;;;84.50;;
22103;SDS011;11218;48.886;9.426;2022-12-11T10:07:55;194.20;;;86.78;;
22103;SDS011;11218;48.886;9.426;2022-12-11T10:10:30;183.50;;;85.00;;
22103;SDS011;11218;48.886;9.426;2022-12-11T10:13:10;180.70;;;81.43;;
22103;SDS011;11218;48.886;9.426;2022-12-11T10:15:48;159.82;;;74.45;;
22103;SDS011;11218;48.886;9.426;2022-12-11T10:18:22;166.40;;;80.05;;
22103;SDS011;11218;48.886;9.426;2022-12-11T10:21:21;162.73;;;76.00;;
22103;SDS011;11218;48.886;9.426;2022-12-11T10:23:51;139.43;;;67.90;;
22103;SDS011;11218;48.886;9.426;2022-12-11T10:26:26;147.23;;;69.97;;
22103;SDS011;11218;48.886;9.426;2022-12-11T10:28:56;157.43;;;74.47;;
22103;SDS011;11218;48.886;9.426;2022-12-11T10:31:28;124.37;;;61.93;;
22103;SDS011;11218;48.886;9.426;2022-12-11T10:34:02;111.85;;;60.33;;
22103;SDS011;11218;48.886;9.426;2022-12-11T10:36:35;113.83;;;59.03;;
22103;SDS011;11218;48.886;9.426;2022-12-11T10:39:11;119.47;;;61.33;;
22103;SDS011;11218;48.886;9.426;2022-12-11T10:41:42;118.03;;;61.35;;
22103;SDS011;11218;48.886;9.426;2022-12-11T10:44:15;100.68;;;52.78;;
22103;SDS011;11218;48.886;9.426;2022-12-11T10:46:45;133.02;;;62.47;;
22103;SDS011;11218;48.886;9.426;2022-12-11T10:49:21;135.63;;;65.28;;
22103;SDS011;11218;48.886;9.426;2022-12-11T10:51:51;144.10;;;70.10;;
22103;SDS011;11218;48.886;9.426;2022-12-11T10:54:28;137.88;;;68.88;;
22103;SDS011;11218;48.886;9.426;2022-12-11T10:56:59;128.00;;;64.23;;
22103;SDS011;11218;48.886;9.426;2022-12-11T10:59:32;149.27;;;72.22;;
22103;SDS011;11218;48.886;9.426;2022-12-11T11:02:02;127.80;;;63.88;;
22103;SDS011;11218;48.886;9.426;2022-12-11T11:04:33;106.43;;;54.70;;
22103;SDS011;11218;48.886;9.426;2022-12-11T11:07:07;132.82;;;63.20;;
22103;SDS011;11218;48.886;9.426;2022-12-11T11:09:40;123.95;;;61.42;;
22103;SDS011;11218;48.886;9.426;2022-12-11T11:12:16;138.70;;;68.87;;
22103;SDS011;11218;48.886;9.426;2022-12-11T11:14:57;114.78;;;57.42;;
22103;SDS011;11218;48.886;9.426;2022-12-11T11:17:25;121.15;;;58.80;;
22103;SDS011;11218;48.886;9.426;2022-12-11T11:20:03;138.37;;;66.87;;
22103;SDS011;11218;48.886;9.426;2022-12-11T11:22:39;120.18;;;58.75;;
22103;SDS011;11218;48.886;9.426;2022-12-11T11:25:16;135.70;;;63.58;;
22103;SDS011;11218;48.886;9.426;2022-12-11T11:27:50;134.43;;;65.22;;
22103;SDS011;11218;48.886;9.426;2022-12-11T11:30:21;146.70;;;71.78;;
22103;SDS011;11218;48.886;9.426;2022-12-11T11:32:51;132.35;;;66.00;;
22103;SDS011;11218;48.886;9.426;2022-12-11T11:35:22;118.82;;;60.53;;
22103;SDS011;11218;48.886;9.426;2022-12-11T11:37:53;127.22;;;62.03;;
22103;SDS011;11218;48.886;9.426;2022-12-11T11:40:29;146.05;;;68.82;;
22103;SDS011;11218;48.886;9.426;2022-12-11T11:43:03;147.77;;;72.68;;
22103;SDS011;11218;48.886;9.426;2022-12-11T11:45:42;147.38;;;71.43;;
22103;SDS011;11218;48.886;9.426;2022-12-11T11:48:18;139.88;;;68.63;;
22103;SDS011;11218;48.886;9.426;2022-12-11T11:50:55;123.15;;;65.63;;
22103;SDS011;11218;48.886;9.426;2022-12-11T11:53:26;131.70;;;66.75;;
22103;SDS011;11218;48.886;9.426;2022-12-11T11:56:02;126.35;;;64.68;;
22103;SDS011;11218;48.886;9.426;2022-12-11T11:58:42;103.80;;;57.67;;
22103;SDS011;11218;48.886;9.426;2022-12-11T12:01:16;111.72;;;59.47;;
22103;SDS011;11218;48.886;9.426;2022-12-11T12:03:47;99.00;;;55.35;;
22103;SDS011;11218;48.886;9.426;2022-12-11T12:06:19;112.85;;;59.03;;
22103;SDS011;11218;48.886;9.426;2022-12-11T12:09:06;113.20;;;59.65;;
22103;SDS011;11218;48.886;9.426;2022-12-11T12:11:52;152.30;;;72.22;;
22103;SDS011;11218;48.886;9.426;2022-12-11T12:14:27;144.15;;;70.93;;
22103;SDS011;11218;48.886;9.426;2022-12-11T12:17:19;139.48;;;68.63;;
22103;SDS011;11218;48.886;9.426;2022-12-11T12:19:54;143.68;;;70.47;;
22103;SDS011;11218;48.886;9.426;2022-12-11T12:22:32;143.15;;;70.85;;
22103;SDS011;11218;48.886;9.426;2022-12-11T12:25:15;175.38;;;79.82;;
22103;SDS011;11218;48.886;9.426;2022-12-11T12:27:52;203.02;;;86.38;;
22103;SDS011;11218;48.886;9.426;2022-12-11T12:30:27;188.60;;;83.50;;
22103;SDS011;11218;48.886;9.426;2022-12-11T12:33:09;152.50;;;73.38;;
22103;SDS011;11218;48.886;9.426;2022-12-11T12:35:48;133.55;;;66.25;;
22103;SDS011;11218;48.886;9.426;2022-12-11T12:38:33;152.07;;;69.65;;
22103;SDS011;11218;48.886;9.426;2022-12-11T12:41:08;149.38;;;68.63;;
22103;SDS011;11218;48.886;9.426;2022-12-11T12:44:01;134.88;;;63.85;;
22103;SDS011;11218;48.886;9.426;2022-12-11T12:46:42;125.43;;;63.42;;
22103;SDS011;11218;48.886;9.426;2022-12-11T12:49:22;123.43;;;57.50;;
22103;SDS011;11218;48.886;9.426;2022-12-11T12:51:56;111.90;;;47.00;;
22103;SDS011;11218;48.886;9.426;2022-12-11T12:54:26;106.28;;;46.65;;
22103;SDS011;11218;48.886;9.426;2022-12-11T12:56:56;109.28;;;47.55;;
22103;SDS011;11218;48.886;9.426;2022-12-11T12:59:27;125.65;;;50.90;;
22103;SDS011;11218;48.886;9.426;2022-12-11T13:01:56;113.63;;;47.20;;
22103;SDS011;11218;48.886;9.426;2022-12-11T13:04:28;81.57;;;37.47;;
22103;SDS011;11218;48.886;9.426;2022-12-11T13:07:24;89.50;;;35.67;;
22103;SDS011;11218;48.886;9.426;2022-12-11T13:09:57;91.72;;;36.33;;
22103;SDS011;11218;48.886;9.426;2022-12-11T13:12:30;68.60;;;30.50;;
22103;SDS011;11218;48.886;9.426;2022-12-11T13:15:02;78.97;;;32.35;;
22103;SDS011;11218;48.886;9.426;2022-12-11T13:17:35;79.28;;;31.60;;
22103;SDS011;11218;48.886;9.426;2022-12-11T13:20:12;88.25;;;35.55;;
22103;SDS011;11218;48.886;9.426;2022-12-11T13:22:48;90.53;;;35.72;;
22103;SDS011;11218;48.886;9.426;2022-12-11T13:25:26;97.03;;;39.15;;
22103;SDS011;11218;48.886;9.426;2022-12-11T13:28:05;80.47;;;33.03;;
22103;SDS011;11218;48.886;9.426;2022-12-11T13:30:35;91.00;;;32.67;;
22103;SDS011;11218;48.886;9.426;2022-12-11T13:33:04;92.70;;;34.03;;
22103;SDS011;11218;48.886;9.426;2022-12-11T13:35:34;81.97;;;32.55;;
22103;SDS011;11218;48.886;9.426;2022-12-11T13:38:03;93.00;;;34.55;;
22103;SDS011;11218;48.886;9.426;2022-12-11T13:40:38;73.90;;;31.02;;
22103;SDS011;11218;48.886;9.426;2022-12-11T13:43:08;86.53;;;33.55;;
22103;SDS011;11218;48.886;9.426;2022-12-11T13:45:47;73.35;;;30.02;;
22103;SDS011;11218;48.886;9.426;2022-12-11T13:48:18;87.97;;;33.33;;
22103;SDS011;11218;48.886;9.426;2022-12-11T13:50:50;89.63;;;33.05;;
22103;SDS011;11218;48.886;9.426;2022-12-11T13:53:19;88.65;;;32.28;;
22103;SDS011;11218;48.886;9.426;2022-12-11T13:55:54;103.93;;;35.40;;
22103;SDS011;11218;48.886;9.426;2022-12-11T13:58:24;82.70;;;32.63;;
22103;SDS011;11218;48.886;9.426;2022-12-11T14:01:00;98.40;;;37.47;;
22103;SDS011;11218;48.886;9.426;2022-12-11T14:03:33;80.65;;;34.17;;
22103;SDS011;11218;48.886;9.426;2022-12-11T14:06:02;94.88;;;36.55;;
22103;SDS011;11218;48.886;9.426;2022-12-11T14:08:31;107.60;;;42.60;;
22103;SDS011;11218;48.886;9.426;2022-12-11T14:11:02;102.80;;;39.10;;
22103;SDS011;11218;48.886;9.426;2022-12-11T14:13:32;94.70;;;39.38;;
22103;SDS011;11218;48.886;9.426;2022-12-11T14:16:03;86.45;;;34.58;;
22103;SDS011;11218;48.886;9.426;2022-12-11T14:18:34;80.43;;;34.33;;
22103;SDS011;11218;48.886;9.426;2022-12-11T14:21:04;72.60;;;32.83;;
22103;SDS011;11218;48.886;9.426;2022-12-11T14:23:33;91.20;;;39.78;;
22103;SDS011;11218;48.886;9.426;2022-12-11T14:26:10;109.50;;;43.35;;
22103;SDS011;11218;48.886;9.426;2022-12-11T14:28:44;87.82;;;35.47;;
22103;SDS011;11218;48.886;9.426;2022-12-11T14:31:14;100.40;;;41.05;;
22103;SDS011;11218;48.886;9.426;2022-12-11T14:33:49;101.72;;;41.30;;
22103;SDS011;11218;48.886;9.426;2022-12-11T14:36:21;92.70;;;35.78;;
22103;SDS011;11218;48.886;9.426;2022-12-11T14:38:51;82.47;;;32.50;;
22103;SDS011;11218;48.886;9.426;2022-12-11T14:41:24;86.20;;;34.60;;
22103;SDS011;11218;48.886;9.426;2022-12-11T14:43:56;75.25;;;28.25;;
22103;SDS011;11218;48.886;9.426;2022-12-11T14:46:30;88.25;;;34.92;;
22103;SDS011;11218;48.886;9.426;2022-12-11T14:49:06;72.07;;;30.98;;